Time;durP1;ratioP1;P1;durP2;ratioP2;P2;SDS_P1;SDS_P2;PMS_P1;PMS_P2;Temp;Humidity;BMP_temperature;BMP_pressure;BME280_temperature;BME280_humidity;BME280_pressure;Samples;Min_cycle;Max_cycle;Signal;HPM_P1;HPM_P2
2022/12/12 00:01:50;;;;;;;;;34.50;30.50;;;;;4.14;68.33;98253.50;4989131;28;9658;-79
2022/12/12 00:04:19;;;;;;;;;40.00;34.00;;;;;4.30;67.83;98251.00;4990522;28;8971;-78
2022/12/12 00:06:47;;;;;;;;;35.50;32.75;;;;;4.31;68.02;98257.03;5008402;28;8869;-79
2022/12/12 00:09:16;;;;;;;;;37.75;30.50;;;;;4.27;68.24;98263.91;5025776;28;8887;-79
2022/12/12 00:11:45;;;;;;;;;38.50;34.00;;;;;4.16;68.70;98255.25;4993290;28;9713;-79
2022/12/12 00:14:15;;;;;;;;;30.00;28.25;;;;;3.91;67.79;98241.38;4991858;28;8861;-78
2022/12/12 00:16:44;;;;;;;;;38.50;35.50;;;;;3.98;67.85;98248.28;4992968;28;10175;-78
2022/12/12 00:19:12;;;;;;;;;35.75;29.50;;;;;4.04;67.53;98256.03;4992689;28;8968;-76
2022/12/12 00:21:42;;;;;;;;;38.00;34.00;;;;;4.22;67.42;98262.16;5025539;28;8857;-77
2022/12/12 00:24:10;;;;;;;;;44.50;37.25;;;;;3.88;68.07;98267.16;4992692;28;8861;-79
2022/12/12 00:26:39;;;;;;;;;28.25;25.50;;;;;3.65;68.83;98275.63;5009461;28;8929;-78
2022/12/12 00:29:08;;;;;;;;;40.25;35.25;;;;;3.91;67.76;98282.63;4992755;28;8849;-76
2022/12/12 00:31:38;;;;;;;;;42.00;37.50;;;;;4.02;67.64;98269.78;4993413;28;8857;-79
2022/12/12 00:34:07;;;;;;;;;39.25;36.00;;;;;4.04;67.47;98284.41;5004960;28;8882;-78
2022/12/12 00:36:36;;;;;;;;;29.50;26.25;;;;;4.04;67.47;98273.25;5006370;28;8901;-79
2022/12/12 00:39:05;;;;;;;;;38.25;32.75;;;;;4.08;67.18;98267.25;5045770;28;8855;-78
2022/12/12 00:41:34;;;;;;;;;36.50;31.00;;;;;4.18;66.98;98257.81;5031499;28;8843;-80
2022/12/12 00:44:02;;;;;;;;;39.00;31.75;;;;;4.30;66.32;98279.38;5028434;28;9010;-78
2022/12/12 00:46:31;;;;;;;;;33.25;31.50;;;;;4.04;67.31;98287.00;5028252;28;8957;-78
2022/12/12 00:49:01;;;;;;;;;41.25;36.50;;;;;3.70;68.88;98291.97;5043216;28;8840;-77
2022/12/12 00:51:31;;;;;;;;;39.25;34.25;;;;;4.07;67.90;98292.19;5041867;28;8916;-78
2022/12/12 00:54:00;;;;;;;;;32.75;31.25;;;;;3.97;67.88;98294.69;5039613;28;8875;-78
2022/12/12 00:56:30;;;;;;;;;44.00;38.67;;;;;3.74;68.99;98302.28;5032278;28;8860;-77
2022/12/12 00:58:59;;;;;;;;;31.50;30.25;;;;;3.85;68.53;98309.25;5048075;28;8865;-78
2022/12/12 01:01:33;;;;;;;;;41.00;41.00;;;;;3.75;69.06;98317.78;5031598;28;9606;-79
2022/12/12 01:04:03;;;;;;;;;39.50;38.00;;;;;3.90;68.57;98325.63;5048417;28;8954;-78
2022/12/12 01:06:33;;;;;;;;;40.25;36.25;;;;;4.36;67.65;98324.13;5048194;28;8892;-78
2022/12/12 01:09:02;;;;;;;;;37.75;31.00;;;;;4.40;67.32;98310.38;5034980;28;9745;-77
2022/12/12 01:11:30;;;;;;;;;44.75;37.00;;;;;4.07;67.80;98309.38;5013351;28;8860;-79
2022/12/12 01:13:59;;;;;;;;;36.00;32.25;;;;;4.07;68.82;98310.22;5030257;28;8855;-78
2022/12/12 01:16:29;;;;;;;;;38.50;32.50;;;;;4.10;68.46;98306.81;5031176;28;8875;-78
2022/12/12 01:18:58;;;;;;;;;32.00;29.75;;;;;3.85;68.11;98316.13;5046346;28;8855;-77
2022/12/12 01:21:28;;;;;;;;;39.75;35.00;;;;;4.01;67.13;98314.50;5030725;28;8867;-78
2022/12/12 01:23:56;;;;;;;;;41.75;34.25;;;;;4.07;66.95;98301.66;5028993;28;8917;-78
2022/12/12 01:26:25;;;;;;;;;36.75;30.50;;;;;3.98;67.28;98307.59;5045467;28;8875;-80
2022/12/12 01:28:54;;;;;;;;;42.75;30.25;;;;;3.82;67.78;98318.66;5029340;28;8887;-78
2022/12/12 01:31:23;;;;;;;;;32.25;28.00;;;;;3.75;68.10;98322.09;5013206;28;8844;-78
2022/12/12 01:33:51;;;;;;;;;30.00;27.25;;;;;3.53;68.77;98327.06;5031354;28;8871;-78
2022/12/12 01:36:22;;;;;;;;;39.00;31.25;;;;;3.58;68.42;98332.28;4964198;28;8882;-77
2022/12/12 01:38:55;;;;;;;;;36.75;31.25;;;;;3.71;68.24;98326.34;5030713;28;9030;-80
2022/12/12 01:41:25;;;;;;;;;37.75;35.50;;;;;3.53;68.91;98331.34;5029926;28;8986;-78
2022/12/12 01:43:54;;;;;;;;;38.50;28.25;;;;;3.59;67.96;98340.03;5029086;28;8997;-78
2022/12/12 01:46:42;;;;;;;;;45.50;38.25;;;;;3.91;67.96;98349.69;5029934;28;8886;-78
2022/12/12 01:49:17;;;;;;;;;36.50;30.00;;;;;4.19;65.93;98350.72;5045499;28;8831;-79
2022/12/12 01:51:48;;;;;;;;;44.75;37.25;;;;;4.07;66.59;98342.91;5029053;28;8859;-78
2022/12/12 01:54:24;;;;;;;;;32.25;29.75;;;;;4.69;65.41;98339.75;5027518;28;8857;-78
2022/12/12 01:56:56;;;;;;;;;33.75;30.00;;;;;5.21;64.30;98340.75;4970364;28;8865;-79
2022/12/12 01:59:26;;;;;;;;;40.50;36.75;;;;;5.33;62.74;98338.19;4955912;28;8861;-78
2022/12/12 02:01:56;;;;;;;;;36.00;31.25;;;;;5.56;61.93;98330.44;4971937;28;8830;-78
2022/12/12 02:04:27;;;;;;;;;36.50;32.75;;;;;5.57;61.15;98334.72;4987940;28;8861;-77
2022/12/12 02:06:57;;;;;;;;;35.75;32.25;;;;;5.33;63.16;98320.09;4977101;28;9775;-77
2022/12/12 02:09:28;;;;;;;;;34.00;33.00;;;;;5.81;62.24;98309.72;4943287;28;8926;-78
2022/12/12 02:11:58;;;;;;;;;31.75;28.25;;;;;6.11;61.31;98306.25;4990711;28;8852;-77
2022/12/12 02:14:30;;;;;;;;;36.75;32.25;;;;;6.40;60.99;98305.28;4969944;28;9618;-77
2022/12/12 02:17:26;;;;;;;;;35.75;31.00;;;;;5.72;60.88;98315.75;4987464;28;9646;-78
2022/12/12 02:20:36;;;;;;;;;33.00;29.75;;;;;5.71;61.78;98328.69;4987346;28;8842;-78
2022/12/12 02:23:37;;;;;;;;;9.00;8.00;;;;;5.31;63.96;98339.88;4968199;28;8958;-78
2022/12/12 02:26:40;;;;;;;;;33.50;30.50;;;;;5.23;64.13;98357.97;4967803;28;8856;-78
2022/12/12 02:29:38;;;;;;;;;32.20;28.60;;;;;5.45;64.02;98355.41;4967721;28;8871;-78
2022/12/12 02:32:19;;;;;;;;;28.00;27.00;;;;;5.25;63.88;98360.56;4959334;28;8856;-77
2022/12/12 02:34:55;;;;;;;;;30.00;29.50;;;;;5.28;64.00;98364.00;4961582;28;8894;-80
2022/12/12 02:37:32;;;;;;;;;34.00;29.75;;;;;5.05;64.96;98363.97;4993695;28;8876;-78
2022/12/12 02:40:10;;;;;;;;;39.75;30.75;;;;;3.97;66.45;98372.94;4987507;28;8983;-78
2022/12/12 02:42:44;;;;;;;;;33.75;27.25;;;;;4.45;65.58;98374.06;4987369;28;8873;-77
2022/12/12 02:45:21;;;;;;;;;41.50;33.75;;;;;3.38;69.43;98387.06;4955284;28;8875;-78
2022/12/12 02:47:58;;;;;;;;;37.00;33.50;;;;;3.37;70.52;98380.19;4969825;28;8884;-79
2022/12/12 02:50:32;;;;;;;;;30.50;28.75;;;;;2.81;72.10;98393.34;4963626;28;8876;-80
2022/12/12 02:53:01;;;;;;;;;34.75;31.00;;;;;2.60;73.61;98397.38;5041143;28;8998;-78
2022/12/12 02:55:30;;;;;;;;;37.50;33.50;;;;;2.57;74.91;98401.63;5009010;28;8873;-77
2022/12/12 02:58:06;;;;;;;;;41.75;35.25;;;;;2.64;75.37;98401.72;5014834;28;8900;-79
2022/12/12 03:00:45;;;;;;;;;37.25;29.25;;;;;2.28;76.44;98430.38;5044196;28;8870;-77
2022/12/12 03:09:51;;;;;;;;;34.75;31.00;;;;;2.21;77.16;98431.13;4916736;28;8862;-79
2022/12/12 03:12:27;;;;;;;;;38.75;35.00;;;;;2.21;77.32;98426.88;4900631;28;8882;-80
2022/12/12 03:15:02;;;;;;;;;36.00;30.25;;;;;2.20;78.43;98435.44;4948507;28;8971;-78
2022/12/12 03:17:38;;;;;;;;;35.50;26.00;;;;;2.22;77.99;98438.88;4900808;28;8928;-78
2022/12/12 03:20:15;;;;;;;;;38.00;33.25;;;;;2.37;77.94;98427.09;4931739;28;9008;-80
2022/12/12 03:22:50;;;;;;;;;31.50;31.50;;;;;2.01;79.15;98438.56;4946692;28;8881;-80
2022/12/12 03:25:24;;;;;;;;;29.50;26.75;;;;;1.96;79.43;98441.03;4919962;28;8950;-78
2022/12/12 03:28:02;;;;;;;;;44.00;37.50;;;;;2.12;79.31;98435.31;4921417;28;8870;-79
2022/12/12 03:30:34;;;;;;;;;43.75;36.25;;;;;2.21;78.65;98444.00;4937219;28;8877;-80
2022/12/12 03:33:09;;;;;;;;;39.00;35.00;;;;;2.10;77.63;98449.00;4941207;28;8927;-79
2022/12/12 03:35:46;;;;;;;;;43.00;32.25;;;;;1.85;78.71;98448.63;4929216;28;8961;-79
2022/12/12 03:38:20;;;;;;;;;38.00;34.25;;;;;1.91;78.82;98451.28;4926883;28;8909;-79
2022/12/12 03:40:52;;;;;;;;;31.00;24.75;;;;;1.93;78.02;98439.31;4942093;28;8858;-78
2022/12/12 03:43:25;;;;;;;;;41.00;37.75;;;;;1.85;78.83;98446.03;4927533;28;8940;-80
2022/12/12 03:45:59;;;;;;;;;49.25;37.00;;;;;1.94;78.82;98450.44;4969729;28;8884;-80
2022/12/12 03:48:29;;;;;;;;;43.25;37.50;;;;;2.24;77.34;98444.06;5025134;28;8858;-78
2022/12/12 03:51:04;;;;;;;;;35.75;31.50;;;;;1.85;78.02;98447.72;5024349;28;8881;-80
2022/12/12 03:53:39;;;;;;;;;31.00;26.50;;;;;1.91;78.05;98448.69;4991967;28;8858;-80
2022/12/12 03:56:14;;;;;;;;;36.25;31.75;;;;;1.84;77.98;98457.16;5010147;28;8870;-80
2022/12/12 03:58:49;;;;;;;;;37.00;35.00;;;;;2.09;77.78;98455.81;5011681;28;8855;-79
2022/12/12 04:01:21;;;;;;;;;41.75;26.75;;;;;2.37;76.86;98451.09;5012917;28;8863;-80
2022/12/12 04:03:55;;;;;;;;;44.50;37.75;;;;;2.29;76.71;98460.44;5047402;28;8867;-80
2022/12/12 04:06:32;;;;;;;;;38.00;35.75;;;;;2.22;76.98;98467.16;5027616;28;8859;-78
2022/12/12 04:15:09;;;;;;;;;41.25;33.00;;;;;2.18;77.75;98478.25;5010662;28;8863;-80
2022/12/12 04:17:42;;;;;;;;;39.25;34.50;;;;;2.40;77.41;98476.00;5027034;28;8902;-79
2022/12/12 04:23:18;;;;;;;;;36.50;31.75;;;;;2.33;76.90;98472.50;5043756;28;9116;-79
2022/12/12 04:28:58;;;;;;;;;36.00;30.00;;;;;2.31;77.93;98479.31;4934266;28;8880;-80
2022/12/12 04:31:30;;;;;;;;;38.50;33.25;;;;;2.40;77.53;98479.47;4901386;28;8946;-81
2022/12/12 04:34:05;;;;;;;;;42.00;36.75;;;;;2.21;78.83;98483.47;4949842;28;8872;-79
2022/12/12 04:36:35;;;;;;;;;27.50;25.75;;;;;2.16;78.82;98479.94;4934035;28;8855;-80
2022/12/12 04:39:08;;;;;;;;;36.50;31.50;;;;;2.22;78.63;98480.03;4950110;28;8875;-80
2022/12/12 04:41:40;;;;;;;;;41.50;36.25;;;;;2.43;78.12;98491.50;4935870;28;8863;-79
2022/12/12 04:44:11;;;;;;;;;32.75;27.00;;;;;2.46;78.02;98487.25;4970281;28;8863;-79
2022/12/12 04:46:42;;;;;;;;;35.00;30.25;;;;;2.09;79.31;98489.25;4938210;28;8840;-79
2022/12/12 04:49:16;;;;;;;;;44.25;32.50;;;;;2.13;79.86;98500.47;4957484;28;8880;-78
2022/12/12 04:51:49;;;;;;;;;30.25;28.25;;;;;2.07;79.31;98508.06;4957030;28;8885;-79
2022/12/12 04:54:28;;;;;;;;;32.25;30.50;;;;;1.69;78.04;98513.44;4970186;28;8870;-78
2022/12/12 04:57:02;;;;;;;;;23.25;20.75;;;;;1.79;77.68;98512.75;4953826;28;9680;-80
2022/12/12 04:59:31;;;;;;;;;23.50;20.50;;;;;1.76;78.03;98525.56;4953721;28;8855;-80
2022/12/12 05:02:07;;;;;;;;;23.50;22.75;;;;;1.66;77.84;98539.91;4948225;28;8869;-80
2022/12/12 05:04:46;;;;;;;;;31.25;28.50;;;;;1.64;78.72;98530.44;4957192;28;8869;-78
2022/12/12 05:07:21;;;;;;;;;34.75;34.00;;;;;1.78;78.04;98538.41;5013208;28;8921;-79
2022/12/12 05:09:51;;;;;;;;;37.75;30.50;;;;;1.73;78.25;98540.91;5046173;28;8881;-79
2022/12/12 05:12:20;;;;;;;;;29.75;26.50;;;;;1.69;78.42;98550.25;5046370;28;10193;-80
2022/12/12 05:14:50;;;;;;;;;28.00;21.25;;;;;1.67;78.38;98548.50;5013272;28;8886;-79
2022/12/12 05:17:27;;;;;;;;;35.25;32.75;;;;;1.86;78.16;98552.28;5029470;28;8882;-79
2022/12/12 05:19:56;;;;;;;;;28.00;24.75;;;;;1.99;77.51;98551.66;5013208;28;8855;-79
2022/12/12 05:22:25;;;;;;;;;35.50;31.00;;;;;1.96;77.28;98554.16;5027941;28;8835;-78
2022/12/12 05:24:55;;;;;;;;;33.00;29.50;;;;;2.08;77.09;98550.94;5009561;28;8878;-78
2022/12/12 05:27:24;;;;;;;;;36.50;25.75;;;;;1.64;77.32;98557.00;4993101;28;8866;-79
2022/12/12 05:29:52;;;;;;;;;26.00;22.50;;;;;1.67;76.50;98563.94;5028301;28;8871;-78
2022/12/12 05:32:21;;;;;;;;;46.25;39.00;;;;;1.71;75.41;98563.16;5012626;28;8859;-77
2022/12/12 05:34:49;;;;;;;;;40.75;33.00;;;;;1.55;76.26;98557.72;5027659;28;8853;-79
2022/12/12 05:37:18;;;;;;;;;25.50;22.50;;;;;1.73;75.13;98564.03;4995211;28;8845;-78
2022/12/12 05:39:47;;;;;;;;;25.00;25.00;;;;;1.91;74.03;98564.38;5009826;28;9016;-79
2022/12/12 05:42:17;;;;;;;;;34.25;29.25;;;;;2.17;73.54;98568.25;5027383;28;8861;-78
2022/12/12 05:44:45;;;;;;;;;60.25;52.25;;;;;2.41;72.90;98567.78;5027669;28;8861;-80
2022/12/12 05:47:14;;;;;;;;;37.50;35.00;;;;;2.84;71.06;98574.47;5027480;28;8861;-78
2022/12/12 05:49:43;;;;;;;;;23.00;21.25;;;;;2.89;70.69;98582.22;5010861;28;8888;-79
2022/12/12 05:52:12;;;;;;;;;24.25;21.25;;;;;3.41;69.63;98574.34;5026606;28;8845;-79
2022/12/12 05:54:40;;;;;;;;;28.25;27.00;;;;;2.66;70.24;98589.63;5010464;28;8861;-80
2022/12/12 05:57:09;;;;;;;;;35.75;33.00;;;;;2.16;71.89;98605.97;5024005;28;8872;-78
2022/12/12 05:59:39;;;;;;;;;32.50;26.50;;;;;2.31;71.65;98593.34;4989812;28;8867;-81
2022/12/12 06:02:08;;;;;;;;;26.25;24.25;;;;;2.38;71.85;98590.88;5021172;28;8856;-79
2022/12/12 06:04:36;;;;;;;;;24.00;23.50;;;;;1.93;72.80;98605.53;5006826;28;8943;-78
2022/12/12 06:07:06;;;;;;;;;29.50;24.00;;;;;2.32;71.91;98602.78;4992845;28;8840;-78
2022/12/12 06:09:35;;;;;;;;;29.75;24.50;;;;;2.05;72.84;98610.03;5010522;28;8894;-79
2022/12/12 06:12:04;;;;;;;;;24.50;18.75;;;;;1.92;73.36;98619.22;5010708;28;8832;-79
2022/12/12 06:14:33;;;;;;;;;25.75;24.75;;;;;1.79;74.31;98633.53;5043466;28;8881;-78
2022/12/12 06:17:03;;;;;;;;;46.25;41.25;;;;;2.06;74.16;98637.47;5009606;28;8891;-77
2022/12/12 06:19:31;;;;;;;;;27.00;26.50;;;;;2.35;72.79;98640.59;5009818;28;8856;-80
2022/12/12 06:22:01;;;;;;;;;39.00;30.75;;;;;1.94;73.45;98654.41;5010700;28;8859;-78
2022/12/12 06:24:30;;;;;;;;;34.25;29.50;;;;;1.81;73.49;98657.56;4977713;28;8880;-79
2022/12/12 06:26:59;;;;;;;;;26.25;24.00;;;;;1.31;73.38;98659.97;5043345;28;8930;-79
2022/12/12 06:29:27;;;;;;;;;28.00;24.75;;;;;1.58;73.60;98657.09;5006558;28;8959;-80
2022/12/12 06:31:56;;;;;;;;;36.00;31.50;;;;;1.78;72.95;98674.63;5023485;28;8904;-80
2022/12/12 06:34:27;;;;;;;;;26.00;24.75;;;;;1.26;73.20;98685.53;5014163;28;8894;-80
2022/12/12 06:36:55;;;;;;;;;31.00;29.50;;;;;1.38;73.96;98689.19;5008137;28;8836;-81
2022/12/12 06:39:24;;;;;;;;;32.50;22.75;;;;;1.47;74.62;98689.41;5027761;28;9482;-78
2022/12/12 06:41:53;;;;;;;;;30.00;26.00;;;;;1.79;72.83;98702.94;5027946;28;8901;-80
2022/12/12 06:44:22;;;;;;;;;24.25;21.00;;;;;1.78;72.94;98701.22;5027916;28;8973;-79
2022/12/12 06:46:51;;;;;;;;;22.50;19.25;;;;;1.64;72.63;98698.34;5011459;28;8870;-80
2022/12/12 06:49:19;;;;;;;;;33.50;32.00;;;;;1.86;72.97;98709.09;5010393;28;8875;-82
2022/12/12 06:51:50;;;;;;;;;30.50;28.50;;;;;1.83;71.81;98717.56;5058236;28;8878;-81
2022/12/12 06:54:19;;;;;;;;;32.50;29.00;;;;;2.15;71.35;98714.78;5006084;28;8867;-81
2022/12/12 06:56:48;;;;;;;;;20.50;20.50;;;;;1.81;71.25;98726.97;5010121;28;8863;-79
2022/12/12 06:59:17;;;;;;;;;22.50;20.75;;;;;1.68;71.58;98717.25;5010236;28;8863;-76
2022/12/12 07:01:45;;;;;;;;;26.75;26.75;;;;;1.67;72.44;98721.53;5043896;28;8976;-79
2022/12/12 07:04:15;;;;;;;;;27.25;21.50;;;;;1.91;72.57;98728.91;5011056;28;8941;-77
2022/12/12 07:06:43;;;;;;;;;29.75;24.75;;;;;1.95;72.12;98719.56;5038932;28;8880;-80
2022/12/12 07:09:13;;;;;;;;;31.50;27.00;;;;;1.89;72.14;98716.84;5047561;28;9009;-78
2022/12/12 07:11:42;;;;;;;;;26.50;24.00;;;;;2.17;70.95;98704.53;5027305;28;8867;-79
2022/12/12 07:14:11;;;;;;;;;24.25;24.25;;;;;1.70;72.39;98711.34;5076408;28;8865;-79
2022/12/12 07:16:40;;;;;;;;;30.25;28.00;;;;;1.86;72.28;98716.78;5027837;28;8859;-82
2022/12/12 07:19:09;;;;;;;;;31.25;26.75;;;;;1.90;71.04;98716.00;5022863;28;8858;-82
2022/12/12 07:21:38;;;;;;;;;24.25;24.25;;;;;2.05;70.28;98712.88;5018179;28;9508;-83
2022/12/12 07:24:07;;;;;;;;;28.75;26.00;;;;;2.04;70.94;98716.28;5023734;28;9029;-84
2022/12/12 07:26:37;;;;;;;;;26.25;24.75;;;;;2.32;70.49;98710.84;4999972;28;8841;-80
2022/12/12 07:29:06;;;;;;;;;23.00;22.00;;;;;2.36;69.21;98713.47;5010849;28;8860;-80
2022/12/12 07:31:35;;;;;;;;;28.50;25.25;;;;;2.27;69.73;98720.19;5012125;28;8872;-79
2022/12/12 07:34:03;;;;;;;;;33.50;30.00;;;;;2.14;69.90;98721.66;4996788;28;8907;-78
2022/12/12 07:36:32;;;;;;;;;30.00;22.00;;;;;1.52;71.14;98736.63;4951122;28;8872;-79
2022/12/12 07:39:01;;;;;;;;;34.00;29.50;;;;;1.69;71.60;98744.72;4999043;28;8961;-79
2022/12/12 07:41:30;;;;;;;;;36.50;31.50;;;;;1.74;71.89;98737.97;5031593;28;8872;-79
2022/12/12 07:44:02;;;;;;;;;34.75;22.00;;;;;1.72;70.75;98740.50;4996560;28;8941;-79
2022/12/12 07:46:31;;;;;;;;;23.75;22.75;;;;;1.70;70.60;98742.19;5009850;28;8856;-79
2022/12/12 07:48:59;;;;;;;;;23.50;21.75;;;;;1.71;70.77;98738.75;5027270;28;9636;-80
2022/12/12 07:51:29;;;;;;;;;26.75;23.00;;;;;1.59;70.03;98728.22;5011744;28;9585;-79
2022/12/12 07:53:58;;;;;;;;;23.00;19.50;;;;;1.64;70.38;98741.16;5012274;28;8868;-78
2022/12/12 07:56:27;;;;;;;;;21.50;21.50;;;;;1.64;70.80;98751.44;5012464;28;8871;-80
2022/12/12 07:58:55;;;;;;;;;20.50;20.25;;;;;1.43;71.56;98752.69;5010483;28;8921;-79
2022/12/12 08:01:28;;;;;;;;;41.75;34.00;;;;;1.67;71.37;98747.25;4995262;28;8875;-79
2022/12/12 08:03:57;;;;;;;;;28.50;27.50;;;;;1.89;70.71;98756.28;4994299;28;8899;-78
2022/12/12 08:06:26;;;;;;;;;31.00;30.50;;;;;2.05;70.87;98752.31;4963146;28;8871;-80
2022/12/12 08:08:54;;;;;;;;;29.25;24.25;;;;;1.65;71.82;98755.75;4961363;28;8895;-73
2022/12/12 08:11:25;;;;;;;;;42.75;32.00;;;;;1.74;72.53;98763.66;5025034;28;8859;-72
2022/12/12 08:13:54;;;;;;;;;28.25;24.00;;;;;2.29;71.89;98763.97;5025564;28;8875;-80
2022/12/12 08:16:24;;;;;;;;;31.00;26.50;;;;;2.27;69.69;98763.91;5012034;28;8925;-79
2022/12/12 08:18:55;;;;;;;;;39.75;35.50;;;;;2.01;70.75;98770.25;5013518;28;8879;-82
2022/12/12 08:21:25;;;;;;;;;45.75;32.00;;;;;1.92;70.91;98771.75;5000268;28;8868;-80
2022/12/12 08:23:56;;;;;;;;;25.50;23.00;;;;;1.86;71.02;98771.63;4997011;28;8906;-79
2022/12/12 08:26:26;;;;;;;;;28.75;28.50;;;;;2.47;70.04;98769.44;4968311;28;8864;-80
2022/12/12 08:28:54;;;;;;;;;27.50;26.00;;;;;2.33;69.62;98774.31;5012856;28;10481;-80
2022/12/12 08:31:24;;;;;;;;;32.75;29.00;;;;;2.41;69.51;98789.03;4994209;28;8867;-81
2022/12/12 08:33:55;;;;;;;;;27.75;26.25;;;;;2.54;67.64;98803.88;4993735;28;8890;-79
2022/12/12 08:36:28;;;;;;;;;39.25;34.25;;;;;2.58;68.41;98800.53;4989437;28;8985;-81
2022/12/12 08:38:58;;;;;;;;;23.25;16.75;;;;;2.38;67.97;98801.84;4955911;28;8878;-82
2022/12/12 08:41:27;;;;;;;;;51.25;44.25;;;;;2.33;69.65;98801.75;4957154;28;8947;-81
2022/12/12 08:43:56;;;;;;;;;40.25;38.50;;;;;2.19;69.35;98814.31;4992467;28;8860;-80
2022/12/12 08:46:25;;;;;;;;;34.00;30.75;;;;;2.29;69.58;98812.84;5010193;28;8883;-79
2022/12/12 08:48:55;;;;;;;;;40.25;33.75;;;;;2.52;69.38;98810.72;5008244;28;8946;-79
2022/12/12 08:51:24;;;;;;;;;29.75;27.25;;;;;3.17;66.89;98817.91;4993139;28;8872;-81
2022/12/12 08:53:53;;;;;;;;;53.00;47.50;;;;;3.11;66.96;98816.09;4944836;28;8878;-80
2022/12/12 08:56:24;;;;;;;;;26.50;25.50;;;;;3.76;65.53;98804.22;4992589;28;8903;-80
2022/12/12 08:58:52;;;;;;;;;26.25;24.50;;;;;3.35;63.38;98806.19;4992599;28;8986;-81
2022/12/12 09:01:24;;;;;;;;;38.25;30.75;;;;;3.06;65.51;98816.84;4994060;28;8866;-81
2022/12/12 09:03:55;;;;;;;;;28.00;25.00;;;;;2.95;65.37;98816.69;4993634;28;8855;-81
2022/12/12 09:06:25;;;;;;;;;37.75;30.50;;;;;2.37;68.40;98825.84;4992964;28;8855;-79
2022/12/12 09:08:55;;;;;;;;;31.00;22.75;;;;;2.58;68.14;98834.00;5063718;28;8895;-80
2022/12/12 09:11:24;;;;;;;;;35.00;32.50;;;;;2.33;68.67;98825.78;5062602;28;8867;-80
2022/12/12 09:13:53;;;;;;;;;30.00;28.00;;;;;2.29;69.57;98829.13;5030101;28;8855;-80
2022/12/12 09:16:25;;;;;;;;;39.00;33.75;;;;;2.37;69.76;98833.56;5029446;28;8848;-78
2022/12/12 09:18:55;;;;;;;;;28.75;25.25;;;;;2.52;69.33;98832.16;5029287;28;8848;-81
2022/12/12 09:21:24;;;;;;;;;24.50;24.50;;;;;2.57;67.38;98834.84;4996609;28;8832;-82
2022/12/12 09:23:52;;;;;;;;;28.25;23.75;;;;;2.40;68.70;98828.47;5062718;28;8860;-80
2022/12/12 09:26:22;;;;;;;;;33.25;30.25;;;;;2.16;69.06;98834.84;4995466;28;8852;-80
2022/12/12 09:28:50;;;;;;;;;34.25;28.75;;;;;2.16;69.25;98831.41;5012203;28;8847;-80
2022/12/12 09:31:20;;;;;;;;;32.75;27.75;;;;;2.55;68.27;98839.06;5029547;28;8879;-81
2022/12/12 09:33:49;;;;;;;;;30.00;25.50;;;;;2.78;67.49;98825.78;5029446;28;8855;-81
2022/12/12 09:36:19;;;;;;;;;27.25;26.25;;;;;2.52;68.40;98842.44;5012607;28;8877;-81
2022/12/12 09:38:48;;;;;;;;;34.50;28.50;;;;;2.46;67.66;98851.78;5012856;28;8867;-80
2022/12/12 09:41:18;;;;;;;;;26.25;24.25;;;;;2.54;67.17;98839.91;5029555;28;8875;-80
2022/12/12 09:43:54;;;;;;;;;39.25;32.75;;;;;2.38;67.22;98843.00;5013186;28;8957;-81
2022/12/12 09:46:36;;;;;;;;;31.25;27.75;;;;;2.42;64.96;98843.13;5047248;28;9636;-81
2022/12/12 09:49:19;;;;;;;;;35.00;32.25;;;;;2.62;66.98;98840.94;5030947;28;8860;-79
2022/12/12 09:51:51;;;;;;;;;37.25;33.00;;;;;2.66;67.52;98845.28;5042500;28;8888;-81
2022/12/12 09:54:22;;;;;;;;;33.75;30.75;;;;;2.61;66.55;98849.50;5029561;28;8917;-80
2022/12/12 09:57:02;;;;;;;;;28.00;23.50;;;;;2.66;66.66;98842.72;5012828;28;8859;-79
2022/12/12 09:59:41;;;;;;;;;32.00;30.75;;;;;3.35;64.50;98839.69;5029088;28;8949;-81
2022/12/12 10:02:40;;;;;;;;;35.50;32.50;;;;;3.08;63.33;98856.38;5012474;28;8944;-80
2022/12/12 10:05:20;;;;;;;;;30.25;25.25;;;;;2.89;63.54;98856.06;5012718;28;8972;-82
2022/12/12 10:07:59;;;;;;;;;29.50;27.00;;;;;2.87;64.23;98859.41;5011773;28;8853;-81
2022/12/12 10:10:32;;;;;;;;;35.25;29.75;;;;;2.71;64.31;98861.69;5018616;28;8860;-80
2022/12/12 10:13:05;;;;;;;;;33.75;29.25;;;;;2.72;64.59;98862.56;5025734;28;8844;-81
2022/12/12 10:15:37;;;;;;;;;28.75;27.00;;;;;2.74;66.25;98855.72;5026435;28;8990;-81
2022/12/12 10:18:12;;;;;;;;;28.50;25.75;;;;;2.83;64.38;98845.63;4977096;28;8867;-82
2022/12/12 10:20:47;;;;;;;;;37.50;33.50;;;;;2.39;64.71;98844.75;5026182;28;8836;-78
2022/12/12 10:23:24;;;;;;;;;18.75;18.25;;;;;2.23;63.83;98838.41;4994005;28;8879;-82
2022/12/12 10:25:56;;;;;;;;;33.50;24.75;;;;;2.47;64.93;98835.47;4992924;28;8868;-81
2022/12/12 10:28:28;;;;;;;;;29.50;26.50;;;;;2.73;64.40;98829.13;5043385;28;9304;-80
2022/12/12 10:31:24;;;;;;;;;26.25;23.50;;;;;2.37;64.53;98843.84;4993705;28;8840;-80
2022/12/12 10:34:08;;;;;;;;;34.25;32.50;;;;;2.22;65.32;98840.13;5026652;28;8856;-79
2022/12/12 10:36:59;;;;;;;;;30.50;27.00;;;;;2.54;65.16;98838.19;5026737;28;8990;-80
2022/12/12 10:39:42;;;;;;;;;27.50;24.50;;;;;2.55;65.45;98844.22;5028321;28;8879;-78
2022/12/12 10:42:19;;;;;;;;;34.00;29.00;;;;;2.68;64.06;98838.47;5024048;28;8848;-80
2022/12/12 10:45:05;;;;;;;;;33.00;30.00;;;;;2.86;63.93;98829.38;5013350;28;8877;-80
2022/12/12 10:47:34;;;;;;;;;30.75;30.50;;;;;2.77;64.14;98831.78;5013450;28;8846;-81
2022/12/12 10:50:21;;;;;;;;;36.75;28.75;;;;;2.64;64.05;98838.38;5013383;28;8862;-81
2022/12/12 10:52:50;;;;;;;;;32.75;28.25;;;;;2.61;62.74;98843.47;5014035;28;8866;-80
2022/12/12 10:55:22;;;;;;;;;30.00;28.00;;;;;2.57;63.80;98846.81;5013655;28;8861;-80
2022/12/12 10:58:02;;;;;;;;;28.75;26.50;;;;;3.09;62.21;98833.22;5047459;28;8842;-78
2022/12/12 11:00:33;;;;;;;;;42.00;38.00;;;;;3.19;62.33;98834.25;5045703;28;8862;-80
2022/12/12 11:03:13;;;;;;;;;38.50;33.50;;;;;3.18;62.19;98822.22;5046368;28;8870;-78
2022/12/12 11:05:42;;;;;;;;;33.25;31.50;;;;;3.06;61.79;98817.75;5028725;28;8862;-79
2022/12/12 11:08:20;;;;;;;;;31.75;29.25;;;;;2.84;62.13;98810.47;5030455;28;8974;-80
2022/12/12 11:11:02;;;;;;;;;41.25;36.75;;;;;3.34;59.58;98805.31;5002017;28;8866;-80
2022/12/12 11:13:31;;;;;;;;;41.50;35.00;;;;;3.23;59.34;98809.41;5063234;28;8857;-80
2022/12/12 11:16:06;;;;;;;;;30.00;28.00;;;;;2.90;58.53;98821.72;5027148;28;8856;-78
2022/12/12 11:18:41;;;;;;;;;29.75;26.00;;;;;2.71;59.70;98820.50;5009594;28;8853;-80
2022/12/12 11:21:12;;;;;;;;;30.50;28.00;;;;;3.25;58.95;98828.34;5010585;28;8894;-79
2022/12/12 11:23:47;;;;;;;;;28.50;28.25;;;;;3.19;60.11;98823.09;5006919;28;8886;-80
2022/12/12 11:26:20;;;;;;;;;45.25;40.50;;;;;3.07;58.81;98834.06;4991163;28;8878;-80
2022/12/12 11:28:55;;;;;;;;;27.75;27.75;;;;;2.89;57.98;98830.31;4976427;28;8869;-79
2022/12/12 11:31:27;;;;;;;;;34.50;31.75;;;;;3.09;58.90;98829.78;5005735;28;8850;-80
2022/12/12 11:33:59;;;;;;;;;44.50;41.25;;;;;3.23;59.29;98830.03;4989459;28;8858;-80
2022/12/12 11:36:33;;;;;;;;;36.00;29.75;;;;;3.59;60.15;98818.56;4973467;28;8874;-79
2022/12/12 11:39:13;;;;;;;;;34.75;33.25;;;;;3.47;59.01;98820.13;4970423;28;9007;-80
2022/12/12 11:44:37;;;;;;;;;39.25;38.00;;;;;3.56;58.74;98809.09;5102583;27;13506;-82
2022/12/12 11:47:21;;;;;;;;;40.00;36.75;;;;;3.50;59.99;98815.03;5067559;28;8882;-81
2022/12/12 11:49:52;;;;;;;;;45.00;34.00;;;;;3.50;59.40;98812.44;5084465;28;8862;-81
2022/12/12 11:52:24;;;;;;;;;33.00;29.00;;;;;3.23;60.05;98810.31;5084209;28;8870;-80
2022/12/12 11:54:54;;;;;;;;;27.50;25.50;;;;;3.07;60.20;98816.03;5067536;28;8996;-81
2022/12/12 11:57:39;;;;;;;;;47.75;32.50;;;;;3.20;60.51;98817.97;5081582;28;8872;-80
2022/12/12 12:00:15;;;;;;;;;40.25;34.00;;;;;3.31;60.20;98800.97;5067650;28;8858;-78
2022/12/12 12:03:04;;;;;;;;;40.25;37.00;;;;;3.54;60.12;98799.63;5063472;28;8957;-81
2022/12/12 12:05:44;;;;;;;;;33.75;30.25;;;;;3.26;59.97;98796.59;5053792;28;8858;-79
2022/12/12 12:08:28;;;;;;;;;16.75;9.75;;;;;3.19;60.38;98812.78;5083602;28;9638;-82
2022/12/12 12:11:10;;;;;;;;;34.50;31.00;;;;;3.16;59.77;98823.03;5063379;28;8857;-81
2022/12/12 12:14:03;;;;;;;;;35.50;30.75;;;;;3.09;60.89;98824.63;5079145;28;8858;-80
2022/12/12 12:16:45;;;;;;;;;25.75;24.00;;;;;2.96;60.29;98833.00;5083509;28;8873;-79
2022/12/12 12:19:25;;;;;;;;;34.75;31.25;;;;;2.86;60.15;98827.66;5091837;28;8959;-82
2022/12/12 12:22:02;;;;;;;;;36.25;32.50;;;;;3.09;59.79;98828.06;5063306;28;8866;-81